Tres Piedras, NM (87577)

9:06 AM MDT on August 29, 2014 (GMT -0600)
San Cristobal | Change Station
CLOSE
Current Station
Personal Weather Station
Location: San Cristobal, NM
Elevation: 7428 ft
Nearby Weather Stations

Elev 7428 ft 36.60 °N, 105.64 °W | Updated 25 seconds ago

Clear
Clear
62.6 °F
Feels Like 62.6 °F
N
9.0
Wind Variable Wind from North
Gusts 15.0 mph

Today
High -- | Low -- °F
--% Chance of Precip.
Yesterday
High -- | Low -- °F
Precip. -- in
6:32 AM 7:36 PM
Waxing Crescent, 14% visible
Pressure 30.38 in
Visibility 10.0 miles
Clouds Clear
Dew Point 42 °F
Humidity 46%
Rainfall 0.00 in
Snow Depth 0 in
UV 3 out of 12
Pollen 10.10 out of 12
Air Quality Not available.
Flu Activity Not available.
METAR KAXX 291455Z AUTO 00000KT 10SM CLR 09/04 A3038 RMK AO2 T00930044

More Conditions Fewer Conditions

Pressure 30.38 in
Visibility 10.0 miles
Clouds Clear
Dew Point 42 °F
Humidity 46%
Rainfall 0.00 in
Snow Depth 0 in
UV 3 out of 12
Pollen 10.10 out of 12
Air Quality Not available.
Flu Activity Not available.
METAR KAXX 291455Z AUTO 00000KT 10SM CLR 09/04 A3038 RMK AO2 T00930044

More Conditions Fewer Conditions

10-Day Weather Forecast

Almanac

Astronomy

Aug. 29, 2014 Rise Set
Actual Time 6:32 AM MDT 7:36 PM MDT
Civil Twilight 6:06 AM MDT 8:02 PM MDT
Nautical Twilight 5:34 AM MDT 8:34 PM MDT
Astronomical Twilight 5:01 AM MDT 9:06 PM MDT
Moon 10:17 AM MDT 9:43 PM MDT
Length of Visible Light 13h 56m
Length of Day
13h 03m
Tomorrow will be 2m 13s shorter.
Waxing Crescent, 14% of the Moon is Illuminated
Today
Waxing Crescent
Sep 2
First Quarter
Sep 8
Full
Sep 15
Last Quarter
Sep 24
New

Today's Extremes

State Highs State Lows

Community

WunderPhotos

Upload Photos

1,748,263 photos uploaded!

Nearby

Snow Depth

Station Depth Elevation
Hopewell 0 in 10000 ft
Bateman 0 in 9300 ft
Red River Pass #2 0 in 9850 ft
Gallegos Peak 1 in 9800 ft
Chamita 0 in 8400 ft

Earthquake Activity

City Distance Mag. Time & Date
No recent earthquake activity has been reported nearby.
Minimum magnitude displayed is 2.5.

Coastal Water Temperatures

Place Temperature
No Stations Reporting

Nearby Weather Stations